Time;durP1;ratioP1;P1;durP2;ratioP2;P2;SDS_P1;SDS_P2;PMS_P1;PMS_P2;Temp;Humidity;BMP_temperature;BMP_pressure;BME280_temperature;BME280_humidity;BME280_pressure;Samples;Min_cycle;Max_cycle;Signal;HPM_P1;HPM_P2
2023/09/14 00:01:00;;;;;;;8.98;5.53;;;;;;;15.11;100.00;97711.03;5029538;28;20102;-66
2023/09/14 00:03:27;;;;;;;9.38;5.75;;;;;;;15.12;100.00;97703.69;5036379;28;20081;-65
2023/09/14 00:05:54;;;;;;;10.18;5.47;;;;;;;15.16;100.00;97708.34;5044740;28;20040;-66
2023/09/14 00:08:21;;;;;;;10.32;6.00;;;;;;;15.22;100.00;97700.94;5036477;28;20110;-65
2023/09/14 00:10:55;;;;;;;9.20;6.30;;;;;;;15.25;100.00;97696.88;5039974;28;20120;-65
2023/09/14 00:13:23;;;;;;;10.18;6.13;;;;;;;15.25;100.00;97694.16;5028503;28;20051;-65
2023/09/14 00:15:49;;;;;;;10.68;6.10;;;;;;;15.12;100.00;97695.50;5027128;28;20049;-65
2023/09/14 00:18:16;;;;;;;8.90;5.55;;;;;;;15.12;100.00;97699.06;5027927;28;20420;-64
2023/09/14 00:20:43;;;;;;;7.78;5.95;;;;;;;15.16;100.00;97702.88;5037221;28;20526;-65
2023/09/14 00:23:10;;;;;;;9.63;5.57;;;;;;;15.13;100.00;97703.41;5031028;28;20057;-65
2023/09/14 00:25:37;;;;;;;10.15;5.88;;;;;;;15.18;100.00;97714.31;5032192;28;20041;-65
2023/09/14 00:28:03;;;;;;;10.10;6.20;;;;;;;15.19;100.00;97704.25;5031973;28;20053;-65
2023/09/14 00:30:30;;;;;;;10.00;7.28;;;;;;;15.18;100.00;97705.31;5028349;28;20045;-64
2023/09/14 00:32:57;;;;;;;11.95;6.47;;;;;;;15.19;100.00;97709.69;5026702;28;20069;-65
2023/09/14 00:35:24;;;;;;;10.20;6.78;;;;;;;15.17;100.00;97709.97;5033426;28;20492;-65
2023/09/14 00:37:50;;;;;;;11.63;6.85;;;;;;;15.11;100.00;97708.31;5033083;28;20044;-65
2023/09/14 00:40:17;;;;;;;8.60;6.75;;;;;;;15.11;100.00;97715.69;5030528;28;20082;-65
2023/09/14 00:42:47;;;;;;;10.80;7.38;;;;;;;15.16;100.00;97710.22;5033561;28;20041;-65
2023/09/14 00:45:15;;;;;;;11.55;6.40;;;;;;;15.15;100.00;97716.78;5043561;28;20106;-64
2023/09/14 00:47:47;;;;;;;12.82;8.40;;;;;;;15.22;100.00;97720.03;5028168;28;20047;-65
2023/09/14 00:50:16;;;;;;;13.35;8.65;;;;;;;15.28;100.00;97723.59;5029220;28;20067;-65
2023/09/14 00:52:46;;;;;;;11.48;8.07;;;;;;;15.31;100.00;97712.13;5026535;28;20448;-65
2023/09/14 00:55:17;;;;;;;13.48;8.70;;;;;;;15.27;100.00;97711.03;5036894;28;20504;-65
2023/09/14 00:57:46;;;;;;;13.73;8.75;;;;;;;15.28;100.00;97716.22;5034176;28;20041;-65
2023/09/14 01:00:14;;;;;;;10.00;8.00;;;;;;;15.37;100.00;97716.47;5036325;28;20096;-64
2023/09/14 01:02:41;;;;;;;11.18;8.38;;;;;;;15.44;100.00;97714.28;5027044;28;20029;-65
2023/09/14 01:05:09;;;;;;;10.88;7.60;;;;;;;15.50;100.00;97714.28;5025656;28;20080;-64
2023/09/14 01:07:36;;;;;;;12.68;8.63;;;;;;;15.45;100.00;97718.66;5033256;28;20064;-65
2023/09/14 01:10:06;;;;;;;12.05;7.65;;;;;;;15.48;100.00;97717.28;5024135;28;20068;-63
2023/09/14 01:12:33;;;;;;;12.02;8.30;;;;;;;15.40;100.00;97718.66;5027671;28;20037;-65
2023/09/14 01:15:21;;;;;;;11.07;8.27;;;;;;;15.45;100.00;97715.91;5032948;28;20051;-65
2023/09/14 01:18:16;;;;;;;11.30;7.88;;;;;;;15.42;100.00;97712.94;5035273;28;20633;-64
2023/09/14 01:21:11;;;;;;;11.25;7.90;;;;;;;15.46;100.00;97714.00;5033763;28;20156;-66
2023/09/14 01:24:09;;;;;;;10.52;6.93;;;;;;;15.45;100.00;97713.19;5036976;28;20574;-65
2023/09/14 01:26:37;;;;;;;11.25;7.68;;;;;;;15.45;100.00;97718.66;5034727;28;20148;-66
2023/09/14 01:29:04;;;;;;;10.50;7.25;;;;;;;15.52;100.00;97725.75;5035229;28;20044;-65
2023/09/14 01:31:31;;;;;;;10.25;6.97;;;;;;;15.43;100.00;97720.00;5038965;28;20033;-65
2023/09/14 01:33:58;;;;;;;11.90;7.45;;;;;;;15.43;100.00;97722.75;5033548;28;20424;-65
2023/09/14 01:36:41;;;;;;;10.93;7.43;;;;;;;15.51;100.00;97719.47;5031990;28;20401;-64
2023/09/14 01:39:10;;;;;;;11.38;7.03;;;;;;;15.55;100.00;97717.00;5028706;28;20160;-65
2023/09/14 01:41:37;;;;;;;11.02;6.97;;;;;;;15.56;100.00;97724.91;5019263;28;20051;-65
2023/09/14 01:44:05;;;;;;;9.75;7.25;;;;;;;15.57;100.00;97726.56;5050834;28;20072;-65
2023/09/14 01:46:32;;;;;;;9.98;7.22;;;;;;;15.53;100.00;97719.19;5036086;28;20400;-66
2023/09/14 01:48:59;;;;;;;11.27;6.95;;;;;;;15.62;100.00;97728.44;5027010;28;20052;-65
2023/09/14 01:51:26;;;;;;;10.25;7.30;;;;;;;15.64;100.00;97726.28;5028364;28;20558;-65
2023/09/14 01:53:52;;;;;;;10.15;7.32;;;;;;;15.68;100.00;97724.63;5028572;28;20033;-65
2023/09/14 01:56:19;;;;;;;11.50;7.50;;;;;;;15.63;100.00;97716.44;5032301;28;20072;-65
2023/09/14 01:58:46;;;;;;;10.27;6.95;;;;;;;15.68;100.00;97713.72;5037270;28;20073;-65
2023/09/14 02:01:13;;;;;;;9.15;6.82;;;;;;;15.63;100.00;97721.09;5047574;28;20057;-65
2023/09/14 02:03:39;;;;;;;9.88;7.13;;;;;;;15.57;100.00;97725.72;5037128;28;20054;-66
2023/09/14 02:06:06;;;;;;;9.60;6.78;;;;;;;15.60;100.00;97722.47;5029672;28;20115;-65
2023/09/14 02:08:32;;;;;;;10.13;6.65;;;;;;;15.64;100.00;97726.28;5028431;28;20048;-65
2023/09/14 02:10:59;;;;;;;11.95;6.65;;;;;;;15.70;100.00;97718.88;5027912;28;20049;-65
2023/09/14 02:13:29;;;;;;;8.55;6.28;;;;;;;15.77;100.00;97721.31;5035012;28;20025;-65
2023/09/14 02:15:55;;;;;;;9.30;6.13;;;;;;;15.76;100.00;97722.41;5041353;28;20076;-65
2023/09/14 02:18:22;;;;;;;10.95;7.00;;;;;;;15.67;100.00;97722.16;5030233;28;20045;-64
2023/09/14 02:20:48;;;;;;;12.00;7.20;;;;;;;15.66;100.00;97720.53;5030673;28;20056;-65
2023/09/14 02:23:17;;;;;;;11.95;7.45;;;;;;;15.57;100.00;97721.09;5024742;28;20038;-66
2023/09/14 02:25:45;;;;;;;9.95;7.50;;;;;;;15.53;100.00;97724.66;5030214;28;20045;-65
2023/09/14 02:28:13;;;;;;;9.70;7.15;;;;;;;15.47;100.00;97719.19;5034356;28;20132;-65
2023/09/14 02:30:41;;;;;;;9.75;7.57;;;;;;;15.41;100.00;97717.56;5031554;28;20052;-65
2023/09/14 02:33:08;;;;;;;11.02;7.85;;;;;;;15.41;100.00;97724.94;5029569;28;20029;-66
2023/09/14 02:35:36;;;;;;;8.95;6.72;;;;;;;15.37;100.00;97721.94;5036557;28;20061;-65
2023/09/14 02:38:02;;;;;;;11.48;8.32;;;;;;;15.23;100.00;97720.88;5036091;28;20116;-63
2023/09/14 02:40:29;;;;;;;11.13;7.43;;;;;;;15.29;100.00;97719.78;5032517;28;21119;-65
2023/09/14 02:42:56;;;;;;;12.05;7.40;;;;;;;15.36;100.00;97716.78;5031218;28;20049;-64
2023/09/14 02:45:23;;;;;;;11.40;7.43;;;;;;;15.29;100.00;97722.50;5037843;28;20509;-65
2023/09/14 02:47:50;;;;;;;11.68;7.22;;;;;;;15.30;100.00;97716.75;5038555;28;20053;-64
2023/09/14 02:50:17;;;;;;;11.00;7.82;;;;;;;15.18;100.00;97722.50;5031269;28;20053;-66
2023/09/14 02:52:44;;;;;;;12.02;7.78;;;;;;;15.05;100.00;97723.06;5024263;28;20150;-64
2023/09/14 02:55:10;;;;;;;9.32;7.32;;;;;;;14.95;100.00;97721.97;5031419;28;20624;-66
2023/09/14 02:57:37;;;;;;;11.50;7.07;;;;;;;14.97;100.00;97726.31;5040160;28;20410;-65
2023/09/14 03:00:12;;;;;;;12.82;8.35;;;;;;;14.90;100.00;97729.31;5035557;28;20075;-64
2023/09/14 03:02:40;;;;;;;12.13;8.07;;;;;;;14.78;100.00;97730.38;5029801;28;20080;-64
2023/09/14 03:05:09;;;;;;;11.80;7.63;;;;;;;14.73;100.00;97734.97;5037140;28;20533;-65
2023/09/14 03:07:37;;;;;;;11.77;8.07;;;;;;;14.75;100.00;97738.28;5035150;28;20412;-64
2023/09/14 03:10:04;;;;;;;11.25;7.68;;;;;;;14.76;100.00;97738.03;5063552;28;20133;-65
2023/09/14 03:12:30;;;;;;;12.30;8.13;;;;;;;14.79;100.00;97733.94;5034299;28;20057;-65
2023/09/14 03:14:57;;;;;;;11.77;7.35;;;;;;;14.79;100.00;97731.22;5032809;28;20045;-64
2023/09/14 03:17:23;;;;;;;11.85;7.63;;;;;;;14.83;100.00;97735.03;5027824;28;20049;-65
2023/09/14 03:19:53;;;;;;;13.60;8.18;;;;;;;14.66;100.00;97740.69;5031093;28;20052;-65
2023/09/14 03:22:19;;;;;;;11.77;7.32;;;;;;;14.55;100.00;97734.41;5025897;28;20033;-65
2023/09/14 03:24:46;;;;;;;11.20;8.13;;;;;;;14.55;100.00;97751.59;5031241;28;20037;-65
2023/09/14 03:27:12;;;;;;;11.10;7.85;;;;;;;14.56;100.00;97746.97;5032363;28;20684;-65
2023/09/14 03:29:39;;;;;;;10.52;7.57;;;;;;;14.59;100.00;97751.84;5032311;28;20057;-65
2023/09/14 03:32:06;;;;;;;11.40;7.63;;;;;;;14.48;100.00;97751.00;5028770;28;20037;-66
2023/09/14 03:34:33;;;;;;;13.15;8.10;;;;;;;14.47;100.00;97757.56;5036756;28;20620;-64
2023/09/14 03:36:59;;;;;;;11.45;6.93;;;;;;;14.57;100.00;97759.50;5034048;28;20111;-65
2023/09/14 03:39:26;;;;;;;12.85;8.15;;;;;;;14.47;100.00;97760.28;5025127;28;20042;-65
2023/09/14 03:41:53;;;;;;;11.98;7.80;;;;;;;14.54;100.00;97758.13;5026966;28;20071;-65
2023/09/14 03:44:19;;;;;;;12.43;8.07;;;;;;;14.54;100.00;97751.84;5033827;28;20041;-65
2023/09/14 03:46:46;;;;;;;11.73;8.10;;;;;;;14.49;100.00;97757.28;5032531;28;20048;-55
2023/09/14 03:49:12;;;;;;;11.63;8.52;;;;;;;14.44;100.00;97758.91;5028516;28;20073;-57
2023/09/14 03:51:39;;;;;;;13.50;9.00;;;;;;;14.45;100.00;97759.75;5031447;28;20092;-55
2023/09/14 03:54:06;;;;;;;11.75;8.88;;;;;;;14.41;100.00;97750.47;5030938;28;20038;-56
2023/09/14 03:56:36;;;;;;;12.90;8.43;;;;;;;14.32;100.00;97763.78;5022144;28;20493;-57
2023/09/14 03:59:04;;;;;;;16.48;8.70;;;;;;;14.30;100.00;97760.50;5025127;28;20049;-58
2023/09/14 04:01:30;;;;;;;11.90;8.73;;;;;;;14.22;100.00;97761.81;5025940;28;20049;-56
2023/09/14 04:03:58;;;;;;;13.95;9.65;;;;;;;14.14;100.00;97775.94;5028343;28;20581;-58
2023/09/14 04:06:25;;;;;;;12.27;8.20;;;;;;;14.12;100.00;97772.69;5025943;28;20045;-56
2023/09/14 04:08:52;;;;;;;18.15;9.50;;;;;;;14.11;100.00;97777.28;5024453;28;20468;-57
2023/09/14 04:11:18;;;;;;;11.85;8.40;;;;;;;14.09;100.00;97779.47;5020538;28;20044;-56
2023/09/14 04:13:45;;;;;;;13.05;8.95;;;;;;;14.03;100.00;97769.63;5027535;28;20057;-54
2023/09/14 04:16:12;;;;;;;14.80;10.43;;;;;;;13.99;100.00;97777.53;5024531;28;20046;-58
2023/09/14 04:18:41;;;;;;;14.48;8.60;;;;;;;13.83;100.00;97771.19;5027538;28;20455;-56
2023/09/14 04:21:08;;;;;;;15.55;9.73;;;;;;;13.81;100.00;97786.13;5024145;28;20048;-58
2023/09/14 04:23:34;;;;;;;13.68;9.15;;;;;;;13.81;100.00;97786.94;5026752;28;20035;-58
2023/09/14 04:26:03;;;;;;;15.23;10.13;;;;;;;13.89;100.00;97793.78;5028491;28;20045;-58
2023/09/14 04:28:31;;;;;;;17.55;10.80;;;;;;;13.87;100.00;97780.47;5024996;28;20167;-56
2023/09/14 04:31:01;;;;;;;12.95;8.57;;;;;;;13.91;100.00;97783.47;5026962;28;20045;-57
2023/09/14 04:33:30;;;;;;;15.65;9.50;;;;;;;13.99;100.00;97782.97;5029386;28;20037;-57
2023/09/14 04:36:05;;;;;;;16.25;9.55;;;;;;;14.04;100.00;97782.16;5021878;28;20045;-58
2023/09/14 04:38:32;;;;;;;15.68;8.88;;;;;;;14.08;100.00;97785.19;5040421;28;20041;-58
2023/09/14 04:41:04;;;;;;;14.20;9.45;;;;;;;14.05;100.00;97784.63;5030492;28;20041;-58
2023/09/14 04:43:32;;;;;;;12.45;7.68;;;;;;;14.01;100.00;97785.44;5027410;28;20053;-57
2023/09/14 04:46:06;;;;;;;16.17;9.70;;;;;;;13.99;100.00;97782.97;5027749;28;20053;-58
2023/09/14 04:48:37;;;;;;;15.88;9.93;;;;;;;14.09;100.00;97800.44;5022418;28;20087;-58
2023/09/14 04:51:04;;;;;;;14.63;9.88;;;;;;;14.00;100.00;97794.66;5031695;28;20164;-56
2023/09/14 04:53:31;;;;;;;13.55;9.60;;;;;;;14.05;100.00;97802.88;5029480;28;20037;-57
2023/09/14 04:55:57;;;;;;;16.15;9.02;;;;;;;14.13;100.00;97809.72;5030785;28;20156;-57
2023/09/14 04:58:24;;;;;;;16.20;10.43;;;;;;;14.22;100.00;97801.88;5028408;28;20037;-57
2023/09/14 05:00:52;;;;;;;14.07;9.95;;;;;;;14.27;100.00;97785.53;5027024;28;20060;-56
2023/09/14 05:03:20;;;;;;;14.20;9.13;;;;;;;14.31;100.00;97781.22;5025864;28;20033;-57
2023/09/14 05:05:52;;;;;;;13.57;8.80;;;;;;;14.42;100.00;97785.59;5025907;28;20136;-57
2023/09/14 05:08:20;;;;;;;11.38;8.07;;;;;;;14.46;100.00;97780.44;5032030;28;20385;-65
2023/09/14 05:10:49;;;;;;;14.43;8.30;;;;;;;14.52;100.00;97787.53;5027270;28;20539;-65
2023/09/14 05:13:18;;;;;;;10.32;7.75;;;;;;;14.63;100.00;97782.13;5009539;28;20037;-66
2023/09/14 05:15:45;;;;;;;14.10;8.63;;;;;;;14.67;100.00;97788.69;5021923;28;20060;-64
2023/09/14 05:18:12;;;;;;;12.55;9.20;;;;;;;14.70;100.00;97786.22;5024781;28;20053;-66
2023/09/14 05:20:47;;;;;;;13.88;9.40;;;;;;;14.79;100.00;97786.56;5024963;28;20618;-66
2023/09/14 05:23:14;;;;;;;11.70;8.43;;;;;;;14.82;100.00;97790.66;5027236;28;20046;-66
2023/09/14 05:25:41;;;;;;;11.85;7.93;;;;;;;14.85;100.00;97784.63;5029391;28;20409;-66
2023/09/14 05:28:08;;;;;;;11.60;8.10;;;;;;;14.93;100.00;97780.59;5022546;28;20060;-66
2023/09/14 05:30:35;;;;;;;13.60;9.05;;;;;;;14.96;100.00;97780.03;5036453;28;20047;-66
2023/09/14 05:33:02;;;;;;;10.43;7.78;;;;;;;15.01;100.00;97788.22;5025933;28;20049;-65
2023/09/14 05:35:29;;;;;;;11.15;7.75;;;;;;;15.04;100.00;97784.94;5034984;28;20561;-66
2023/09/14 05:37:56;;;;;;;11.35;8.13;;;;;;;15.07;100.00;97787.13;5029041;28;20049;-66
2023/09/14 05:40:22;;;;;;;9.75;7.10;;;;;;;15.15;100.00;97790.44;5023112;28;20704;-64
2023/09/14 05:42:49;;;;;;;11.52;7.20;;;;;;;15.19;100.00;97791.53;5025402;28;20049;-66
2023/09/14 05:45:16;;;;;;;9.07;7.13;;;;;;;15.21;100.00;97794.78;5027583;28;20060;-66
2023/09/14 05:47:44;;;;;;;9.77;6.60;;;;;;;15.26;100.00;97794.78;5027281;28;20033;-66
2023/09/14 05:50:12;;;;;;;11.23;6.53;;;;;;;15.25;100.00;97795.06;5027273;28;20139;-66
2023/09/14 05:52:39;;;;;;;10.02;6.13;;;;;;;15.26;100.00;97802.16;5027195;28;20451;-64
2023/09/14 05:55:07;;;;;;;10.25;7.35;;;;;;;15.25;100.00;97792.34;5032043;28;20845;-64
2023/09/14 05:57:34;;;;;;;10.45;6.63;;;;;;;15.33;100.00;97789.88;5024544;28;20508;-66
2023/09/14 06:00:08;;;;;;;9.10;5.97;;;;;;;15.37;100.00;97787.41;5025929;28;20056;-66
2023/09/14 06:02:40;;;;;;;7.68;5.75;;;;;;;15.39;100.00;97790.69;5029789;28;20135;-66
2023/09/14 06:05:09;;;;;;;10.48;5.55;;;;;;;15.44;100.00;97781.69;5032906;28;20065;-67
2023/09/14 06:07:51;;;;;;;7.30;5.10;;;;;;;15.50;100.00;97793.41;5027400;28;20110;-66
2023/09/14 06:10:17;;;;;;;7.32;5.22;;;;;;;15.50;100.00;97790.69;5024322;28;20123;-65
2023/09/14 06:12:44;;;;;;;7.47;4.50;;;;;;;15.47;100.00;97787.41;5032994;28;20045;-65
2023/09/14 06:15:11;;;;;;;6.45;4.10;;;;;;;15.52;100.00;97792.03;5028641;28;20530;-65
2023/09/14 06:17:37;;;;;;;6.47;4.25;;;;;;;15.55;100.00;97796.16;5025061;28;20113;-65
2023/09/14 06:20:05;;;;;;;7.38;4.28;;;;;;;15.56;100.00;97795.06;5027122;28;20767;-66
2023/09/14 06:22:32;;;;;;;7.43;4.00;;;;;;;15.60;100.00;97798.88;5023550;28;20060;-66
2023/09/14 06:24:59;;;;;;;6.50;4.45;;;;;;;15.67;100.00;97802.13;5024983;28;20052;-65
2023/09/14 06:27:25;;;;;;;6.20;3.67;;;;;;;15.76;100.00;97813.31;5026822;28;20909;-65
2023/09/14 06:29:52;;;;;;;12.55;5.70;;;;;;;15.66;100.00;97802.44;5023949;28;20065;-65
2023/09/14 06:32:18;;;;;;;7.65;4.13;;;;;;;15.71;100.00;97802.41;5028028;28;20056;-65
2023/09/14 06:34:45;;;;;;;8.40;4.45;;;;;;;15.77;100.00;97809.50;5021615;28;20133;-65
2023/09/14 06:37:15;;;;;;;7.00;4.20;;;;;;;15.74;100.00;97807.34;5030697;28;20041;-66
2023/09/14 06:39:41;;;;;;;9.05;4.20;;;;;;;15.75;100.00;97803.50;5028685;28;20033;-65
2023/09/14 06:42:08;;;;;;;8.93;4.22;;;;;;;15.78;100.00;97800.22;5023824;28;20532;-66
2023/09/14 06:44:34;;;;;;;9.10;4.30;;;;;;;15.82;100.00;97808.69;5026823;28;20698;-64
2023/09/14 06:47:01;;;;;;;6.65;3.70;;;;;;;15.83;100.00;97807.56;5022782;28;20136;-65
2023/09/14 06:49:28;;;;;;;6.68;3.85;;;;;;;15.88;100.00;97810.28;5036239;28;20041;-65
2023/09/14 06:51:54;;;;;;;6.00;3.97;;;;;;;15.96;100.00;97809.75;5032587;28;20096;-65
2023/09/14 06:54:21;;;;;;;9.35;4.10;;;;;;;16.03;100.00;97808.66;5027704;28;20048;-65
2023/09/14 06:56:48;;;;;;;6.15;3.42;;;;;;;16.01;100.00;97803.47;5027023;28;20172;-65
2023/09/14 06:59:14;;;;;;;6.35;3.92;;;;;;;16.07;100.00;97802.34;5034535;28;20044;-65
2023/09/14 07:01:41;;;;;;;6.45;4.00;;;;;;;16.06;100.00;97800.72;5030957;28;20045;-65
2023/09/14 07:04:07;;;;;;;7.95;4.55;;;;;;;16.14;100.00;97801.25;5028646;28;20532;-66
2023/09/14 07:06:34;;;;;;;7.68;3.53;;;;;;;16.15;100.00;97802.88;5066491;28;20045;-66
2023/09/14 07:09:02;;;;;;;5.53;3.80;;;;;;;16.03;100.00;97798.53;5037559;28;20041;-65
2023/09/14 07:11:29;;;;;;;7.03;4.68;;;;;;;16.02;100.00;97805.09;5004066;28;20183;-67
2023/09/14 07:13:58;;;;;;;7.78;4.07;;;;;;;16.10;100.00;97815.47;4982634;28;20574;-65
2023/09/14 07:16:24;;;;;;;8.98;4.63;;;;;;;16.12;100.00;97815.19;4981596;28;20049;-68
2023/09/14 07:18:52;;;;;;;10.05;4.63;;;;;;;16.17;100.00;97812.44;4979833;28;20058;-68
2023/09/14 07:21:19;;;;;;;9.77;5.10;;;;;;;16.28;100.00;97813.22;4986051;28;20186;-66
2023/09/14 07:23:46;;;;;;;6.97;4.38;;;;;;;16.46;100.00;97810.97;4984156;28;20045;-66
2023/09/14 07:26:14;;;;;;;8.85;4.55;;;;;;;16.57;100.00;97812.56;4985440;28;20581;-67
2023/09/14 07:28:40;;;;;;;7.47;4.40;;;;;;;16.71;100.00;97811.94;4984878;28;20056;-65
2023/09/14 07:31:08;;;;;;;7.15;3.85;;;;;;;16.76;100.00;97817.38;4986143;28;20524;-66
2023/09/14 07:33:35;;;;;;;8.18;4.60;;;;;;;16.64;100.00;97817.72;4985628;28;21243;-65
2023/09/14 07:36:01;;;;;;;7.45;4.35;;;;;;;16.66;100.00;97814.72;4999745;28;20045;-66
2023/09/14 07:38:29;;;;;;;7.65;4.50;;;;;;;16.75;100.00;97821.22;5032043;28;20128;-66
2023/09/14 07:40:57;;;;;;;8.43;5.05;;;;;;;16.79;100.00;97816.81;5020534;28;20052;-65
2023/09/14 07:43:24;;;;;;;8.85;4.95;;;;;;;16.77;100.00;97824.50;5022922;28;20052;-67
2023/09/14 07:45:51;;;;;;;8.30;4.88;;;;;;;16.81;100.00;97822.81;5025800;28;20117;-67
2023/09/14 07:48:18;;;;;;;7.03;4.85;;;;;;;16.84;100.00;97818.72;5021596;28;20452;-66
2023/09/14 07:50:44;;;;;;;9.07;5.30;;;;;;;16.82;100.00;97827.22;5026319;28;20049;-66
2023/09/14 07:53:11;;;;;;;7.78;5.10;;;;;;;16.94;100.00;97831.50;5023884;28;20045;-66
2023/09/14 07:55:37;;;;;;;8.70;4.97;;;;;;;17.02;98.88;97825.44;5029294;28;20072;-67
2023/09/14 07:58:08;;;;;;;9.32;5.70;;;;;;;16.60;100.00;97833.06;5003666;28;20060;-67
2023/09/14 08:00:35;;;;;;;8.60;4.57;;;;;;;16.70;100.00;97835.72;5020752;28;20078;-67
2023/09/14 08:03:03;;;;;;;7.97;4.82;;;;;;;16.73;100.00;97835.16;5023087;28;20754;-65
2023/09/14 08:05:30;;;;;;;8.93;5.25;;;;;;;16.85;100.00;97832.09;5027723;28;20038;-68
2023/09/14 08:07:56;;;;;;;7.25;5.00;;;;;;;16.94;99.75;97835.06;5032181;28;20458;-68
2023/09/14 08:10:23;;;;;;;9.88;5.10;;;;;;;16.91;100.00;97835.63;5034588;28;20072;-68
2023/09/14 08:12:50;;;;;;;8.98;5.47;;;;;;;17.10;99.52;97837.75;5023568;28;20687;-66
2023/09/14 08:15:16;;;;;;;9.63;5.40;;;;;;;16.84;100.00;97840.59;5025842;28;20049;-66
2023/09/14 08:17:44;;;;;;;7.00;4.13;;;;;;;17.10;100.00;97835.00;5017395;28;20041;-65
2023/09/14 08:20:11;;;;;;;6.63;4.05;;;;;;;17.37;98.28;97837.28;5022758;28;20123;-66
2023/09/14 08:22:38;;;;;;;8.02;4.75;;;;;;;17.61;97.71;97835.75;5028987;28;20459;-67
2023/09/14 08:25:06;;;;;;;8.38;5.10;;;;;;;17.73;95.67;97840.84;5029206;28;20049;-65
2023/09/14 08:27:34;;;;;;;6.53;4.13;;;;;;;17.74;95.67;97839.72;5024844;28;20124;-64
2023/09/14 08:30:02;;;;;;;7.53;4.78;;;;;;;17.79;94.36;97839.66;5023124;28;20524;-66
2023/09/14 08:32:29;;;;;;;6.78;4.43;;;;;;;17.92;93.88;97843.66;5021362;28;20120;-66
2023/09/14 08:34:57;;;;;;;7.72;4.15;;;;;;;18.02;93.54;97843.56;5025962;28;20034;-66
2023/09/14 08:37:24;;;;;;;7.30;4.75;;;;;;;18.14;92.18;97847.88;5023592;28;20068;-66
2023/09/14 08:39:51;;;;;;;8.07;4.70;;;;;;;18.26;90.49;97852.94;5025864;28;20055;-66
2023/09/14 08:42:24;;;;;;;7.53;3.88;;;;;;;18.38;90.82;97847.03;5024713;28;20045;-66
2023/09/14 08:44:52;;;;;;;6.25;3.63;;;;;;;18.46;91.80;97860.09;5028826;28;20529;-66
2023/09/14 08:47:20;;;;;;;7.60;3.80;;;;;;;18.45;90.10;97856.56;5024854;28;20045;-66
2023/09/14 08:49:49;;;;;;;7.75;3.83;;;;;;;18.36;90.64;97852.00;5019925;28;20132;-65
2023/09/14 08:52:18;;;;;;;9.98;5.32;;;;;;;18.40;89.83;97855.81;5020664;28;20053;-66
2023/09/14 08:54:45;;;;;;;10.00;4.22;;;;;;;18.23;91.12;97854.34;5025249;28;20040;-66
2023/09/14 08:57:12;;;;;;;7.03;4.40;;;;;;;18.37;89.78;97853.63;5034664;28;20064;-66
2023/09/14 08:59:39;;;;;;;5.93;3.80;;;;;;;18.30;90.34;97848.50;5026794;28;20045;-66
2023/09/14 09:02:10;;;;;;;6.68;3.65;;;;;;;18.51;90.28;97845.53;5027812;28;20131;-66
2023/09/14 09:04:38;;;;;;;6.35;4.20;;;;;;;18.52;88.06;97848.00;5028942;28;20037;-66
2023/09/14 09:07:06;;;;;;;7.07;4.47;;;;;;;18.41;88.31;97847.28;5025557;28;20551;-66
2023/09/14 09:09:35;;;;;;;6.30;3.80;;;;;;;18.44;87.85;97843.97;5033360;28;20041;-65
2023/09/14 09:12:02;;;;;;;5.68;4.00;;;;;;;18.54;87.32;97844.97;5026463;28;20087;-66
2023/09/14 09:14:31;;;;;;;6.43;3.63;;;;;;;18.50;87.67;97841.97;5032307;28;20041;-66
2023/09/14 09:16:59;;;;;;;5.65;3.70;;;;;;;18.70;87.45;97840.91;5029759;28;20038;-67
2023/09/14 09:19:26;;;;;;;7.65;4.75;;;;;;;18.66;88.40;97841.78;5028729;28;20041;-67
2023/09/14 09:21:53;;;;;;;7.13;3.67;;;;;;;18.61;88.17;97841.84;5033542;28;20048;-66
2023/09/14 09:24:27;;;;;;;7.03;3.95;;;;;;;18.58;88.50;97838.56;5028575;28;20040;-66
2023/09/14 09:26:55;;;;;;;7.32;3.65;;;;;;;18.50;88.78;97839.22;5032668;28;20041;-66
2023/09/14 09:29:22;;;;;;;5.15;3.20;;;;;;;18.44;89.03;97834.94;5029803;28;20037;-66
2023/09/14 09:31:50;;;;;;;7.72;4.13;;;;;;;18.46;89.67;97841.75;5025876;28;20057;-66
2023/09/14 09:34:28;;;;;;;7.00;3.20;;;;;;;18.62;88.52;97843.47;5028228;28;20044;-66
2023/09/14 09:36:56;;;;;;;5.13;3.05;;;;;;;18.77;87.15;97840.56;5024764;28;20452;-66
2023/09/14 09:39:24;;;;;;;7.13;3.63;;;;;;;18.81;86.78;97843.50;5033897;28;20077;-67
2023/09/14 09:41:51;;;;;;;6.63;3.88;;;;;;;18.69;86.58;97841.22;5029455;28;20045;-67
2023/09/14 09:44:19;;;;;;;5.70;3.70;;;;;;;18.23;88.28;97840.63;5022645;28;20044;-66
2023/09/14 09:46:46;;;;;;;8.15;4.65;;;;;;;18.08;89.04;97841.63;5027649;28;20053;-66
2023/09/14 09:49:18;;;;;;;6.00;3.65;;;;;;;18.49;86.88;97845.81;5024742;28;20053;-66
2023/09/14 09:51:49;;;;;;;7.90;4.15;;;;;;;18.68;85.80;97843.13;5030828;28;20045;-66
2023/09/14 09:54:21;;;;;;;6.95;3.67;;;;;;;18.88;83.98;97849.47;5029430;28;20041;-66
2023/09/14 09:56:48;;;;;;;6.90;3.83;;;;;;;19.06;82.64;97847.06;5023147;28;20630;-65
2023/09/14 09:59:15;;;;;;;5.93;2.95;;;;;;;19.41;83.11;97838.56;5032470;28;20462;-66
2023/09/14 10:01:46;;;;;;;4.65;2.67;;;;;;;19.85;80.72;97842.78;5024316;28;20689;-65
2023/09/14 10:04:17;;;;;;;5.95;3.20;;;;;;;19.80;79.84;97842.06;5028404;28;20041;-66
2023/09/14 10:06:52;;;;;;;4.20;2.47;;;;;;;19.82;79.49;97840.63;5026731;28;20071;-65
2023/09/14 10:09:19;;;;;;;6.18;3.25;;;;;;;19.74;78.67;97835.84;5023183;28;20041;-66
2023/09/14 10:11:48;;;;;;;5.38;3.75;;;;;;;19.77;78.69;97840.72;5029797;28;20053;-65
2023/09/14 10:14:17;;;;;;;5.68;3.20;;;;;;;19.85;79.26;97839.22;5028067;28;20034;-66
2023/09/14 10:16:45;;;;;;;8.82;4.65;;;;;;;19.83;79.88;97842.25;5028539;28;20099;-65
2023/09/14 10:19:12;;;;;;;6.75;3.53;;;;;;;20.00;78.13;97841.72;5031582;28;20110;-66
2023/09/14 10:21:42;;;;;;;8.45;3.10;;;;;;;19.98;78.87;97838.44;5024466;28;20042;-66
2023/09/14 10:24:11;;;;;;;6.25;3.00;;;;;;;20.09;77.42;97839.06;5025510;28;20037;-64
2023/09/14 10:26:38;;;;;;;4.82;2.88;;;;;;;20.06;78.92;97844.38;5028928;28;20045;-65
2023/09/14 10:29:09;;;;;;;5.43;2.70;;;;;;;20.17;77.71;97832.09;5002016;28;20061;-69
2023/09/14 10:31:36;;;;;;;6.60;3.13;;;;;;;20.16;77.36;97832.38;5026129;28;20507;-67
2023/09/14 10:34:03;;;;;;;7.65;4.25;;;;;;;20.32;76.36;97832.88;5024103;28;20040;-66
2023/09/14 10:36:32;;;;;;;6.30;3.47;;;;;;;20.10;76.31;97828.91;5021928;28;20443;-66
2023/09/14 10:39:00;;;;;;;6.97;3.20;;;;;;;19.79;77.85;97833.00;5031612;28;20053;-67
2023/09/14 10:41:28;;;;;;;6.55;2.90;;;;;;;19.83;78.25;97825.78;5026004;28;20140;-67
2023/09/14 10:43:55;;;;;;;7.13;3.28;;;;;;;19.81;77.25;97829.94;5022450;28;20664;-68
2023/09/14 10:46:26;;;;;;;7.53;3.22;;;;;;;19.96;76.85;97826.94;5031296;28;20072;-66
2023/09/14 10:48:58;;;;;;;8.80;3.10;;;;;;;19.92;78.48;97820.41;5025647;28;20137;-66
2023/09/14 10:51:28;;;;;;;8.88;3.78;;;;;;;19.69;78.34;97822.19;5022963;28;20069;-67
2023/09/14 10:53:54;;;;;;;7.60;3.55;;;;;;;19.74;79.36;97822.09;5023531;28;20650;-67
2023/09/14 10:56:31;;;;;;;7.40;2.88;;;;;;;20.00;77.91;97813.41;5020368;28;20653;-67
2023/09/14 10:58:59;;;;;;;10.18;3.30;;;;;;;19.96;77.86;97817.84;5019767;28;20049;-67
2023/09/14 11:01:28;;;;;;;8.15;3.78;;;;;;;19.73;78.64;97812.22;5025250;28;20045;-62
2023/09/14 11:04:18;;;;;;;9.25;4.32;;;;;;;19.80;78.33;97809.09;5029639;28;20056;-64
2023/09/14 11:06:52;;;;;;;;;;;;;;;19.90;78.06;97806.13;5027805;28;20119;-65
2023/09/14 11:09:23;;;;;;;6.97;2.97;;;;;;;20.02;77.04;97798.25;5024520;28;20709;-67
2023/09/14 11:11:50;;;;;;;7.35;4.40;;;;;;;20.07;75.40;97797.34;5023531;28;20053;-68
2023/09/14 11:14:22;;;;;;;6.50;3.10;;;;;;;19.97;77.91;97792.81;5029747;28;20045;-70
2023/09/14 11:16:53;;;;;;;7.57;3.22;;;;;;;20.12;76.33;97802.75;5022715;28;20034;-67
2023/09/14 11:19:29;;;;;;;6.15;3.22;;;;;;;20.09;76.09;97800.59;5027569;28;20136;-67
2023/09/14 11:22:15;;;;;;;6.28;3.35;;;;;;;19.96;77.04;97801.38;5026475;28;20060;-65
2023/09/14 11:24:45;;;;;;;;;;;;;;;19.84;76.73;97801.88;5024534;28;20042;-68
2023/09/14 11:27:20;;;;;;;5.13;2.88;;;;;;;19.94;76.25;97806.38;5029952;28;19964;-65
2023/09/14 11:29:51;;;;;;;4.60;2.88;;;;;;;19.67;76.83;97794.19;5018798;28;20487;-65